Time;durP1;ratioP1;P1;durP2;ratioP2;P2;SDS_P1;SDS_P2;PMS_P1;PMS_P2;Temp;Humidity;BMP_temperature;BMP_pressure;BME280_temperature;BME280_humidity;BME280_pressure;Samples;Min_cycle;Max_cycle;Signal;HPM_P1;HPM_P2
2023/06/07 00:00:37;;;;;;;;;8.40;8.40;;;;;19.24;54.76;99313.09;5070034;28;8874;-76
2023/06/07 00:03:26;;;;;;;;;8.80;8.80;;;;;19.35;54.53;99317.78;5068030;28;8898;-76
2023/06/07 00:05:56;;;;;;;;;9.20;9.20;;;;;19.36;54.42;99319.47;5071690;28;8877;-76
2023/06/07 00:08:25;;;;;;;;;8.20;8.20;;;;;19.36;54.29;99322.16;5068673;28;8858;-76
2023/06/07 00:10:55;;;;;;;;;7.00;7.00;;;;;19.25;54.79;99321.94;5069345;28;8993;-76
2023/06/07 00:13:24;;;;;;;;;8.40;8.40;;;;;19.32;54.52;99326.81;5033125;28;9600;-77
2023/06/07 00:15:53;;;;;;;;;9.20;8.80;;;;;19.23;54.83;99322.03;5068844;28;8876;-77
2023/06/07 00:18:21;;;;;;;;;12.40;11.20;;;;;19.17;55.07;99311.75;5067526;28;8874;-77
2023/06/07 00:20:52;;;;;;;;;7.00;6.20;;;;;18.90;56.17;99322.25;5071214;28;8906;-79
2023/06/07 00:23:21;;;;;;;;;9.60;8.80;;;;;18.91;56.29;99311.53;5068276;28;8873;-77
2023/06/07 00:25:50;;;;;;;;;10.80;10.80;;;;;18.88;56.25;99303.69;5066979;28;9288;-76
2023/06/07 00:28:21;;;;;;;;;12.00;11.80;;;;;19.03;56.00;99304.59;5067254;28;9669;-77
2023/06/07 00:30:49;;;;;;;;;9.00;9.00;;;;;18.93;56.34;99304.28;5100706;28;8854;-77
2023/06/07 00:33:18;;;;;;;;;10.80;10.40;;;;;18.88;56.65;99303.69;5049982;28;8992;-77
2023/06/07 00:35:47;;;;;;;;;12.40;12.40;;;;;19.05;56.15;99293.84;5070514;28;8860;-76
2023/06/07 00:38:16;;;;;;;;;11.00;9.20;;;;;19.18;55.64;99294.81;5083772;28;8980;-76
2023/06/07 00:40:44;;;;;;;;;11.00;10.00;;;;;19.22;55.69;99295.50;5085425;28;8885;-76
2023/06/07 00:43:14;;;;;;;;;11.40;11.40;;;;;19.33;55.28;99296.53;5085700;28;8926;-79
2023/06/07 00:45:44;;;;;;;;;11.80;10.60;;;;;19.10;56.04;99295.28;5085282;28;8878;-77
2023/06/07 00:48:13;;;;;;;;;10.80;10.80;;;;;19.21;55.69;99291.09;5101600;28;8993;-76
2023/06/07 00:50:42;;;;;;;;;8.60;8.20;;;;;19.31;55.50;99289.59;5031651;28;8843;-76
2023/06/07 00:53:11;;;;;;;;;10.80;10.20;;;;;19.30;55.47;99290.53;5068110;28;8854;-78
2023/06/07 00:55:40;;;;;;;;;11.80;10.80;;;;;19.17;55.81;99287.75;5085356;28;8844;-75
2023/06/07 00:58:10;;;;;;;;;8.40;8.40;;;;;19.24;55.87;99277.59;5063580;28;8863;-79
2023/06/07 01:00:38;;;;;;;;;10.40;8.60;;;;;19.30;55.46;99285.22;5084184;28;8846;-76
2023/06/07 01:03:09;;;;;;;;;12.60;9.60;;;;;19.36;55.48;99276.84;5084934;28;9724;-77
2023/06/07 01:05:38;;;;;;;;;10.80;10.60;;;;;19.15;56.11;99284.34;5081704;28;8859;-77
2023/06/07 01:08:09;;;;;;;;;9.00;9.00;;;;;19.36;55.54;99281.31;5009134;28;9634;-77
2023/06/07 01:10:38;;;;;;;;;11.60;10.80;;;;;19.43;55.19;99288.84;5019560;28;8900;-76
2023/06/07 01:13:10;;;;;;;;;8.00;8.00;;;;;19.56;54.81;99280.97;5052780;28;8824;-78
2023/06/07 01:15:40;;;;;;;;;10.40;9.80;;;;;19.62;54.42;99274.41;5074459;28;8996;-77
2023/06/07 01:18:11;;;;;;;;;12.00;10.60;;;;;19.70;54.14;99272.09;5108749;27;8990;-79
2023/06/07 01:20:47;;;;;;;;;9.40;9.40;;;;;19.74;54.43;99280.75;5074772;28;8843;-77
2023/06/07 01:23:28;;;;;;;;;12.80;12.60;;;;;18.83;57.28;99283.63;5105094;27;8870;-77
2023/06/07 01:26:00;;;;;;;;;11.00;11.00;;;;;18.63;58.12;99285.63;5065675;28;8850;-76
2023/06/07 01:28:33;;;;;;;;;11.00;11.00;;;;;18.51;58.67;99279.19;5083892;28;8927;-75
2023/06/07 01:31:03;;;;;;;;;11.40;11.40;;;;;18.62;58.02;99289.22;5079261;28;8881;-79
2023/06/07 01:33:33;;;;;;;;;10.80;10.80;;;;;18.82;57.46;99282.78;5067652;28;9625;-77
2023/06/07 01:36:04;;;;;;;;;8.00;8.00;;;;;18.96;57.09;99294.41;5069226;28;9000;-78
2023/06/07 01:38:34;;;;;;;;;12.20;12.20;;;;;18.90;57.21;99287.63;5082830;28;9663;-76
2023/06/07 01:41:04;;;;;;;;;10.60;8.20;;;;;18.98;57.06;99293.34;5079369;28;8842;-77
2023/06/07 01:43:34;;;;;;;;;11.00;11.00;;;;;19.06;56.60;99288.41;5064953;28;8861;-75
2023/06/07 01:46:04;;;;;;;;;10.40;10.40;;;;;19.05;56.75;99288.53;5082639;28;8939;-76
2023/06/07 01:48:33;;;;;;;;;13.40;12.60;;;;;18.92;57.25;99291.91;5099766;28;9625;-79
2023/06/07 01:51:04;;;;;;;;;13.40;11.80;;;;;18.98;56.90;99290.69;5068297;28;8838;-78
2023/06/07 01:53:35;;;;;;;;;9.00;9.00;;;;;19.11;56.44;99288.16;5049519;28;8838;-77
2023/06/07 01:56:14;;;;;;;;;11.40;11.00;;;;;19.28;56.19;99289.78;5067487;28;8971;-76
2023/06/07 01:58:54;;;;;;;;;10.60;10.60;;;;;19.41;55.81;99287.22;5101715;28;8942;-78
2023/06/07 02:01:31;;;;;;;;;12.80;12.80;;;;;19.50;55.60;99300.84;5086870;28;8851;-75
2023/06/07 02:04:03;;;;;;;;;11.20;9.40;;;;;19.48;55.33;99297.41;5071776;28;8869;-77
2023/06/07 02:06:35;;;;;;;;;10.80;10.80;;;;;19.46;55.24;99302.00;5112643;27;8879;-76
2023/06/07 02:09:11;;;;;;;;;12.80;10.20;;;;;19.57;55.42;99303.16;5091212;28;9644;-77
2023/06/07 02:11:42;;;;;;;;;6.60;5.80;;;;;19.56;54.96;99304.97;5122979;27;8859;-75
2023/06/07 02:14:11;;;;;;;;;13.20;13.20;;;;;19.58;54.84;99308.41;5103101;28;8878;-77
2023/06/07 02:16:43;;;;;;;;;12.40;11.60;;;;;19.62;54.82;99301.06;5102987;28;9057;-79
2023/06/07 02:19:13;;;;;;;;;7.80;7.80;;;;;19.62;55.05;99303.72;5086658;28;8858;-77
2023/06/07 02:21:50;;;;;;;;;13.60;11.20;;;;;19.64;54.74;99305.34;5082211;28;8840;-78
2023/06/07 02:24:19;;;;;;;;;8.80;8.80;;;;;19.65;54.93;99311.50;5055081;28;8920;-77
2023/06/07 02:26:49;;;;;;;;;9.80;9.40;;;;;19.66;54.59;99299.91;5091290;28;8863;-78
2023/06/07 02:29:21;;;;;;;;;10.60;9.00;;;;;19.66;54.61;99305.25;5091093;28;8856;-79
2023/06/07 02:31:50;;;;;;;;;12.40;11.00;;;;;19.68;54.77;99306.00;5094203;28;9077;-77
2023/06/07 02:34:19;;;;;;;;;13.40;13.20;;;;;19.74;54.42;99300.28;5091133;28;8848;-77
2023/06/07 02:36:48;;;;;;;;;9.80;9.20;;;;;19.75;54.16;99304.66;5072568;28;8902;-77
2023/06/07 02:39:17;;;;;;;;;10.40;10.00;;;;;19.74;54.53;99312.75;5070758;28;9576;-77
2023/06/07 02:41:45;;;;;;;;;10.60;10.60;;;;;19.71;54.53;99313.81;5086196;28;8888;-77
2023/06/07 02:44:16;;;;;;;;;11.20;10.40;;;;;19.61;54.82;99315.34;5070550;28;10019;-78
2023/06/07 02:46:44;;;;;;;;;14.20;13.40;;;;;19.54;54.96;99311.31;5070508;28;8854;-78
2023/06/07 02:49:13;;;;;;;;;11.60;11.00;;;;;19.47;55.03;99308.16;5086117;28;8834;-77
2023/06/07 02:51:43;;;;;;;;;11.60;11.60;;;;;19.39;55.32;99311.31;5044503;28;8982;-77
2023/06/07 02:54:13;;;;;;;;;13.20;13.00;;;;;19.36;55.63;99308.81;5088948;28;8871;-77
2023/06/07 02:56:42;;;;;;;;;14.40;12.60;;;;;19.42;55.29;99303.09;5088791;28;8856;-78
2023/06/07 02:59:11;;;;;;;;;12.00;11.80;;;;;19.48;55.16;99305.41;5123463;27;8832;-77
2023/06/07 03:01:44;;;;;;;;;3.40;3.40;;;;;19.47;55.09;99309.00;5072028;28;8832;-76
2023/06/07 03:04:14;;;;;;;;;12.40;11.00;;;;;19.51;55.02;99307.91;5123009;27;8858;-78
2023/06/07 03:06:44;;;;;;;;;13.40;11.60;;;;;19.45;55.34;99305.59;5108019;27;8831;-77
2023/06/07 03:09:23;;;;;;;;;13.80;13.00;;;;;19.16;56.05;99318.03;5085035;28;8830;-80
2023/06/07 03:11:52;;;;;;;;;13.00;11.20;;;;;19.27;55.80;99317.38;5085198;28;8858;-77
2023/06/07 03:14:23;;;;;;;;;13.20;12.20;;;;;19.35;55.79;99316.91;5085420;28;8880;-78
2023/06/07 03:16:54;;;;;;;;;10.20;10.20;;;;;19.39;55.63;99321.97;5077462;28;8858;-76
2023/06/07 03:19:23;;;;;;;;;15.20;15.20;;;;;19.48;55.23;99321.41;5073079;28;8918;-79
2023/06/07 03:21:53;;;;;;;;;12.60;11.20;;;;;19.51;55.29;99329.22;5048701;28;8995;-77
2023/06/07 03:24:23;;;;;;;;;10.00;10.00;;;;;19.57;55.24;99330.66;5033147;28;8868;-76
2023/06/07 03:26:53;;;;;;;;;13.80;13.20;;;;;19.61;54.96;99334.00;5010501;28;8848;-77
2023/06/07 03:29:23;;;;;;;;;10.40;10.20;;;;;19.63;55.06;99335.63;5043749;28;8859;-79
2023/06/07 03:31:53;;;;;;;;;13.60;13.60;;;;;19.65;54.98;99335.50;5027319;28;8973;-75
2023/06/07 03:34:22;;;;;;;;;12.60;12.60;;;;;19.67;54.83;99345.16;5011083;28;8863;-78
2023/06/07 03:36:51;;;;;;;;;11.60;11.00;;;;;19.67;55.15;99341.63;5035375;28;8864;-76
2023/06/07 03:39:20;;;;;;;;;11.00;8.80;;;;;19.56;55.16;99347.63;5083462;28;8828;-77
2023/06/07 03:41:49;;;;;;;;;14.60;13.80;;;;;19.46;55.27;99343.75;5066495;28;8844;-77
2023/06/07 03:44:23;;;;;;;;;13.40;13.00;;;;;19.49;55.33;99338.25;5050153;28;8820;-76
2023/06/07 03:46:54;;;;;;;;;14.00;13.00;;;;;19.58;55.33;99339.53;5083579;28;9594;-77
2023/06/07 03:49:23;;;;;;;;;14.20;13.60;;;;;19.64;55.03;99347.16;5071366;28;8856;-76
2023/06/07 03:51:53;;;;;;;;;14.00;11.80;;;;;19.70;54.82;99347.59;5031705;28;9086;-78
2023/06/07 03:54:23;;;;;;;;;10.40;10.40;;;;;19.79;54.69;99346.19;5046467;28;8964;-77
2023/06/07 03:56:52;;;;;;;;;11.80;11.80;;;;;19.89;54.64;99351.81;5046218;28;8838;-78
2023/06/07 03:59:20;;;;;;;;;13.20;13.00;;;;;19.93;54.25;99353.31;5069079;28;8874;-77
2023/06/07 04:01:50;;;;;;;;;11.00;11.00;;;;;19.99;54.11;99360.06;5068716;28;8843;-76
2023/06/07 04:04:20;;;;;;;;;14.20;13.40;;;;;20.07;53.92;99355.13;5101005;28;8933;-77
2023/06/07 04:06:49;;;;;;;;;15.60;12.80;;;;;20.12;54.14;99357.50;5088011;28;8840;-76
2023/06/07 04:09:19;;;;;;;;;11.60;11.60;;;;;20.14;53.96;99360.91;5053581;28;8979;-77
2023/06/07 04:11:48;;;;;;;;;13.80;13.00;;;;;20.15;54.00;99357.31;5070585;28;8867;-78
2023/06/07 04:14:17;;;;;;;;;13.80;13.20;;;;;20.17;53.90;99360.72;5104637;28;8951;-76
2023/06/07 04:16:47;;;;;;;;;15.20;15.00;;;;;20.22;53.74;99355.97;5015909;28;8848;-78
2023/06/07 04:19:17;;;;;;;;;12.00;11.60;;;;;20.23;53.77;99361.22;5045209;28;8862;-76
2023/06/07 04:21:48;;;;;;;;;20.00;19.40;;;;;20.34;53.77;99357.00;5015131;28;8848;-75
2023/06/07 04:24:19;;;;;;;;;58.75;48.25;;;;;20.39;53.44;99357.59;5032031;28;8859;-79
2023/06/07 04:26:49;;;;;;;;;18.20;17.20;;;;;20.47;53.46;99358.78;5048553;28;8925;-75
2023/06/07 04:29:21;;;;;;;;;22.00;22.00;;;;;20.44;53.37;99358.13;5017481;28;8856;-79
2023/06/07 04:31:52;;;;;;;;;18.40;18.40;;;;;20.49;53.33;99362.19;5065155;28;8952;-77
2023/06/07 04:34:21;;;;;;;;;18.60;18.60;;;;;20.31;53.58;99365.22;5065465;28;8863;-77
2023/06/07 04:36:55;;;;;;;;;22.20;20.40;;;;;20.21;53.98;99363.09;5055079;28;8836;-76
2023/06/07 04:39:24;;;;;;;;;19.60;17.60;;;;;20.22;54.05;99358.63;5016569;28;8955;-78
2023/06/07 04:41:54;;;;;;;;;20.80;19.20;;;;;20.07;54.39;99371.13;5064994;28;8900;-78
2023/06/07 04:44:31;;;;;;;;;24.60;22.40;;;;;19.80;55.55;99365.72;5016066;28;8855;-77
2023/06/07 04:47:08;;;;;;;;;17.60;16.20;;;;;19.92;55.11;99356.94;5048131;28;8936;-77
2023/06/07 04:49:42;;;;;;;;;16.80;16.60;;;;;20.12;54.78;99357.50;5051051;28;8916;-77
2023/06/07 04:52:12;;;;;;;;;14.00;13.40;;;;;20.27;54.69;99359.22;5074070;28;8939;-78
2023/06/07 04:54:47;;;;;;;;;14.40;14.40;;;;;20.43;54.06;99365.28;5082911;28;8842;-78
2023/06/07 04:57:19;;;;;;;;;21.60;21.40;;;;;20.49;53.87;99364.03;5099923;28;8888;-77
2023/06/07 04:59:51;;;;;;;;;23.40;22.20;;;;;20.58;54.23;99374.09;5082831;28;8943;-77
2023/06/07 05:02:25;;;;;;;;;24.00;23.80;;;;;20.66;54.08;99373.59;5084906;28;8859;-75
2023/06/07 05:04:57;;;;;;;;;19.80;19.80;;;;;20.74;53.95;99381.09;5097345;28;8860;-77
2023/06/07 05:07:32;;;;;;;;;24.40;20.60;;;;;20.50;54.33;99384.44;5082533;28;8854;-79
2023/06/07 05:10:02;;;;;;;;;29.40;27.80;;;;;20.45;54.30;99373.19;5099147;28;8862;-77
2023/06/07 05:12:32;;;;;;;;;29.40;27.40;;;;;20.12;55.50;99381.50;5099447;28;8855;-79
2023/06/07 05:15:02;;;;;;;;;27.60;24.60;;;;;20.13;55.82;99386.75;5048336;28;8854;-78
2023/06/07 05:17:32;;;;;;;;;30.60;29.80;;;;;20.21;55.70;99379.09;5081299;28;8838;-76
2023/06/07 05:20:05;;;;;;;;;29.40;26.20;;;;;20.01;56.69;99388.41;5065344;28;8885;-76
2023/06/07 05:22:38;;;;;;;;;37.60;31.80;;;;;19.95;56.94;99388.75;5116276;27;8855;-77
2023/06/07 05:25:09;;;;;;;;;53.25;44.75;;;;;19.34;59.11;99390.69;5085406;28;9018;-77
2023/06/07 05:27:40;;;;;;;;;27.60;27.00;;;;;18.79;61.20;99394.78;5069359;28;8999;-78
2023/06/07 05:30:10;;;;;;;;;31.00;29.80;;;;;18.93;60.95;99391.31;5036137;28;8897;-76
2023/06/07 05:32:40;;;;;;;;;27.20;25.60;;;;;19.34;59.47;99390.69;5097092;28;8977;-76
2023/06/07 05:35:10;;;;;;;;;27.80;27.40;;;;;19.62;58.99;99391.72;5075767;28;9652;-78
2023/06/07 05:37:42;;;;;;;;;35.60;30.00;;;;;19.81;58.76;99388.78;5081879;28;8856;-77
2023/06/07 05:40:15;;;;;;;;;35.60;32.00;;;;;19.98;58.40;99401.06;5070672;28;8902;-79
2023/06/07 05:42:44;;;;;;;;;36.00;33.20;;;;;19.14;60.92;99399.88;5043710;28;8839;-76
2023/06/07 05:45:14;;;;;;;;;40.20;33.00;;;;;19.33;61.07;99397.81;5084839;28;9617;-73
2023/06/07 05:47:43;;;;;;;;;36.60;32.80;;;;;19.79;59.56;99393.34;5084351;28;8873;-73
2023/06/07 05:50:14;;;;;;;;;45.75;38.50;;;;;19.99;58.65;99392.97;5063487;28;8846;-73
2023/06/07 05:52:46;;;;;;;;;48.75;40.75;;;;;20.02;58.54;99384.75;5091721;28;8856;-75
2023/06/07 05:55:16;;;;;;;;;36.40;32.40;;;;;20.37;57.52;99387.03;5085123;28;8936;-75
2023/06/07 05:57:44;;;;;;;;;33.20;30.40;;;;;20.60;56.76;99390.88;5078721;28;8840;-73
2023/06/07 06:00:15;;;;;;;;;32.40;30.80;;;;;20.80;56.65;99383.38;5086143;28;8863;-75
2023/06/07 06:02:45;;;;;;;;;35.00;30.60;;;;;21.02;56.14;99382.81;5040901;28;8969;-72
2023/06/07 06:05:15;;;;;;;;;37.20;33.20;;;;;19.90;59.26;99385.53;5082939;28;8856;-74
2023/06/07 06:07:46;;;;;;;;;36.80;33.80;;;;;20.55;57.83;99384.13;5085907;28;8970;-76
2023/06/07 06:10:14;;;;;;;;;32.80;31.20;;;;;20.25;57.80;99388.66;5053290;28;8915;-74
2023/06/07 06:12:43;;;;;;;;;31.80;26.80;;;;;20.09;58.78;99390.56;5086728;28;8910;-73
2023/06/07 06:15:12;;;;;;;;;33.80;30.40;;;;;20.46;57.89;99386.44;5080166;28;8979;-74
2023/06/07 06:17:41;;;;;;;;;25.20;24.20;;;;;20.58;57.09;99384.78;5095580;28;8860;-76
2023/06/07 06:20:12;;;;;;;;;28.40;27.40;;;;;20.59;57.38;99388.31;5100731;28;8856;-73
2023/06/07 06:22:40;;;;;;;;;28.00;27.60;;;;;20.97;56.41;99385.78;5072392;28;8979;-76
2023/06/07 06:25:13;;;;;;;;;27.60;25.80;;;;;21.24;56.08;99383.09;5084665;28;8840;-73
2023/06/07 06:27:43;;;;;;;;;26.40;26.00;;;;;21.46;54.71;99386.94;5079970;28;8866;-77
2023/06/07 06:30:13;;;;;;;;;26.80;26.80;;;;;21.70;53.93;99388.94;5051259;28;8903;-77
2023/06/07 06:32:41;;;;;;;;;29.60;27.00;;;;;21.89;53.12;99392.03;5086325;28;8852;-77
2023/06/07 06:35:10;;;;;;;;;29.00;27.00;;;;;21.90;53.17;99393.75;5085918;28;8919;-75
2023/06/07 06:37:39;;;;;;;;;28.60;27.00;;;;;22.03;52.46;99394.59;5081494;28;8890;-74
2023/06/07 06:40:09;;;;;;;;;30.00;27.40;;;;;22.11;52.25;99395.81;5075909;28;8888;-75
2023/06/07 06:42:39;;;;;;;;;28.00;26.60;;;;;21.95;52.15;99396.06;5045553;28;8851;-75
2023/06/07 06:45:22;;;;;;;;;23.20;22.40;;;;;22.13;51.98;99401.97;5063670;28;8856;-76
2023/06/07 06:47:51;;;;;;;;;25.00;24.80;;;;;22.30;51.83;99395.41;5067144;28;8878;-75
2023/06/07 06:50:20;;;;;;;;;27.20;24.80;;;;;22.19;51.55;99405.03;5067762;28;8863;-74
2023/06/07 06:53:01;;;;;;;;;45.25;38.00;;;;;21.21;53.83;99396.66;5054759;28;8871;-75
2023/06/07 06:55:31;;;;;;;;;28.20;27.20;;;;;21.58;53.29;99394.16;5066605;28;8852;-76
2023/06/07 06:58:01;;;;;;;;;32.60;30.20;;;;;21.89;52.74;99392.03;5065117;28;8860;-77
2023/06/07 07:00:35;;;;;;;;;29.00;29.00;;;;;21.93;52.50;99393.50;5065691;28;8848;-76
2023/06/07 07:03:04;;;;;;;;;28.20;26.40;;;;;22.18;51.23;99394.44;5066741;28;8868;-79
2023/06/07 07:05:33;;;;;;;;;29.20;25.60;;;;;22.37;51.39;99402.03;5049466;28;8868;-76
2023/06/07 07:08:02;;;;;;;;;27.20;27.20;;;;;22.57;50.99;99398.75;5083652;28;10074;-74
2023/06/07 07:10:31;;;;;;;;;31.80;28.60;;;;;22.75;50.27;99401.03;5066561;28;8890;-77
2023/06/07 07:13:01;;;;;;;;;29.60;28.80;;;;;22.87;49.91;99399.28;5053150;28;8886;-77
2023/06/07 07:15:30;;;;;;;;;29.00;28.00;;;;;22.98;49.35;99405.56;5074071;28;8908;-75
2023/06/07 07:17:59;;;;;;;;;30.00;29.00;;;;;23.05;49.03;99407.78;5056639;28;8942;-73
2023/06/07 07:20:28;;;;;;;;;26.40;25.60;;;;;23.18;49.31;99403.19;5088849;28;8852;-75
2023/06/07 07:22:59;;;;;;;;;33.00;31.40;;;;;23.19;48.03;99403.09;5069977;28;8855;-73
2023/06/07 07:25:30;;;;;;;;;24.20;24.20;;;;;23.30;48.21;99404.97;5070271;28;8870;-74
2023/06/07 07:28:01;;;;;;;;;29.60;28.40;;;;;23.41;47.29;99404.09;5077614;28;8970;-73
2023/06/07 07:30:29;;;;;;;;;28.40;26.60;;;;;23.62;47.28;99407.03;5054043;28;8866;-72
2023/06/07 07:32:58;;;;;;;;;28.80;27.80;;;;;23.60;47.57;99402.72;5087682;28;8944;-73
2023/06/07 07:35:27;;;;;;;;;31.40;29.80;;;;;23.66;46.50;99402.25;5072945;28;8850;-73
2023/06/07 07:38:00;;;;;;;;;35.00;31.60;;;;;23.61;46.26;99405.28;5088847;28;8852;-75
2023/06/07 07:40:30;;;;;;;;;30.80;29.80;;;;;23.66;46.75;99402.25;5089055;28;8856;-71
2023/06/07 07:43:01;;;;;;;;;32.20;28.20;;;;;23.71;46.61;99406.28;5089003;28;8864;-73
2023/06/07 07:45:30;;;;;;;;;28.20;26.80;;;;;23.99;46.42;99406.78;5088235;28;8920;-73
2023/06/07 07:47:58;;;;;;;;;30.80;29.60;;;;;24.05;45.93;99405.44;5088856;28;8867;-70
2023/06/07 07:50:28;;;;;;;;;31.00;30.00;;;;;23.72;45.97;99415.19;5088743;28;8847;-76
2023/06/07 07:52:56;;;;;;;;;27.80;27.00;;;;;23.93;45.71;99413.50;5086859;28;8889;-73
2023/06/07 07:55:25;;;;;;;;;33.60;30.60;;;;;24.08;45.62;99415.97;5065386;28;8851;-74
2023/06/07 07:57:54;;;;;;;;;29.60;27.40;;;;;23.87;45.51;99421.19;5078090;28;8863;-72
2023/06/07 08:00:25;;;;;;;;;31.60;30.20;;;;;23.80;45.56;99411.91;5088365;28;9585;-72
2023/06/07 08:02:53;;;;;;;;;30.60;30.00;;;;;23.96;45.66;99424.00;5088506;28;8860;-73
2023/06/07 08:05:22;;;;;;;;;29.00;29.00;;;;;23.08;47.43;99420.97;5036182;28;8888;-72
2023/06/07 08:07:52;;;;;;;;;36.40;33.00;;;;;23.43;47.09;99418.28;5088627;28;8894;-72
2023/06/07 08:10:21;;;;;;;;;39.00;34.20;;;;;22.67;48.70;99419.50;5086875;28;8886;-72
2023/06/07 08:12:50;;;;;;;;;41.50;35.25;;;;;21.90;51.01;99416.94;5087192;28;9671;-72
2023/06/07 08:15:19;;;;;;;;;39.20;33.40;;;;;21.83;51.19;99413.88;5085445;28;8983;-72
2023/06/07 08:17:49;;;;;;;;;34.00;31.00;;;;;21.91;50.56;99421.34;5085453;28;8862;-75
2023/06/07 08:20:19;;;;;;;;;38.80;34.00;;;;;21.75;51.58;99417.06;5068646;28;8854;-73
2023/06/07 08:22:50;;;;;;;;;35.60;30.80;;;;;22.29;50.24;99417.78;5085505;28;8900;-74
2023/06/07 08:25:19;;;;;;;;;42.00;35.50;;;;;21.48;52.09;99422.47;5084831;28;8854;-74
2023/06/07 08:27:49;;;;;;;;;36.00;33.20;;;;;20.54;54.77;99419.78;5085246;28;9675;-71
2023/06/07 08:30:18;;;;;;;;;40.00;34.75;;;;;20.55;55.84;99426.84;5085173;28;8861;-72
2023/06/07 08:32:46;;;;;;;;;36.20;32.80;;;;;20.28;56.15;99422.31;5068010;28;8924;-72
2023/06/07 08:35:17;;;;;;;;;44.75;37.00;;;;;20.76;55.06;99420.09;5076040;28;8956;-72
2023/06/07 08:37:46;;;;;;;;;33.00;30.40;;;;;21.24;53.07;99422.34;5064643;28;8890;-72
2023/06/07 08:40:18;;;;;;;;;37.60;32.40;;;;;21.62;52.12;99430.44;5086340;28;8830;-72
2023/06/07 08:42:47;;;;;;;;;36.80;33.40;;;;;21.89;51.11;99428.63;5084762;28;8992;-73
2023/06/07 08:45:16;;;;;;;;;41.00;33.80;;;;;22.27;50.60;99427.75;5084714;28;8845;-72
2023/06/07 08:47:45;;;;;;;;;35.20;30.80;;;;;22.65;49.84;99430.31;5067276;28;8881;-72
2023/06/07 08:50:18;;;;;;;;;34.60;31.80;;;;;23.03;48.56;99433.84;5067353;28;8858;-73
2023/06/07 08:52:51;;;;;;;;;33.00;30.00;;;;;23.22;48.15;99426.13;5048127;28;8869;-74
2023/06/07 08:55:21;;;;;;;;;33.20;30.80;;;;;23.34;47.64;99421.69;5067326;28;8858;-72
2023/06/07 08:57:52;;;;;;;;;40.80;35.40;;;;;23.68;47.07;99430.69;5066915;28;8965;-73
2023/06/07 09:00:23;;;;;;;;;38.25;34.50;;;;;23.56;46.12;99424.44;5064796;28;8869;-71
2023/06/07 09:02:52;;;;;;;;;33.20;30.60;;;;;23.87;46.11;99427.41;5063561;28;8888;-73
2023/06/07 09:05:23;;;;;;;;;33.80;32.00;;;;;23.86;45.40;99432.91;5047148;28;8872;-71
2023/06/07 09:07:53;;;;;;;;;34.00;30.00;;;;;23.99;45.37;99433.63;5046141;28;8861;-71
2023/06/07 09:10:22;;;;;;;;;38.00;34.75;;;;;23.63;45.91;99434.69;5046306;28;8907;-76
2023/06/07 09:12:51;;;;;;;;;34.60;32.60;;;;;23.74;45.41;99435.56;5028581;28;8845;-70
2023/06/07 09:15:21;;;;;;;;;34.40;31.80;;;;;24.02;45.75;99428.03;5045737;28;8833;-74
2023/06/07 09:17:52;;;;;;;;;36.00;33.00;;;;;23.93;45.36;99437.66;5053536;28;8917;-72
2023/06/07 09:20:24;;;;;;;;;34.00;32.00;;;;;23.51;45.98;99437.31;5049018;28;8855;-73
2023/06/07 09:22:58;;;;;;;;;34.00;31.40;;;;;23.77;45.37;99429.97;5066980;28;8851;-74
2023/06/07 09:25:28;;;;;;;;;35.80;31.20;;;;;23.87;45.10;99435.47;5045008;28;8840;-73
2023/06/07 09:27:59;;;;;;;;;29.60;27.00;;;;;24.16;45.08;99432.34;5086095;28;8824;-76
2023/06/07 09:30:27;;;;;;;;;34.00;31.50;;;;;24.48;44.97;99436.97;5086597;28;8875;-73
2023/06/07 09:32:57;;;;;;;;;38.50;34.00;;;;;24.59;44.15;99433.41;5075619;28;8847;-73
2023/06/07 09:35:28;;;;;;;;;35.50;32.75;;;;;24.83;42.63;99433.22;5068390;28;8881;-74
2023/06/07 09:37:59;;;;;;;;;41.75;35.75;;;;;25.01;42.19;99429.03;5087017;28;8918;-74
2023/06/07 09:40:28;;;;;;;;;39.00;35.00;;;;;23.96;44.85;99434.75;5085651;28;8855;-73
2023/06/07 09:42:58;;;;;;;;;39.20;35.00;;;;;24.53;43.75;99434.75;5086113;28;8893;-77
2023/06/07 09:45:28;;;;;;;;;37.25;33.75;;;;;24.71;42.95;99432.38;5085996;28;8881;-77
2023/06/07 09:48:06;;;;;;;;;42.25;36.50;;;;;24.64;43.37;99441.91;5084898;28;8856;-81
2023/06/07 09:50:36;;;;;;;;;36.25;33.50;;;;;24.38;43.21;99438.66;5086258;28;8867;-80
2023/06/07 09:53:05;;;;;;;;;38.50;35.00;;;;;24.86;43.32;99433.00;5087414;28;8876;-76
2023/06/07 09:55:34;;;;;;;;;31.60;30.60;;;;;25.20;41.64;99433.72;5085508;28;8947;-76
2023/06/07 09:58:18;;;;;;;;;34.20;32.20;;;;;25.69;40.71;99429.56;5087379;28;8864;-76
2023/06/07 10:00:48;;;;;;;;;34.80;29.80;;;;;25.75;40.63;99424.63;5102584;28;8890;-79
2023/06/07 10:03:17;;;;;;;;;32.00;30.25;;;;;25.89;40.07;99430.53;5085592;28;8851;-77
2023/06/07 10:05:47;;;;;;;;;32.60;30.60;;;;;26.07;39.97;99428.06;5087007;28;8890;-75
2023/06/07 10:08:16;;;;;;;;;32.60;29.60;;;;;26.27;39.61;99429.00;5085985;28;8871;-77
2023/06/07 10:10:51;;;;;;;;;38.40;33.60;;;;;26.41;39.11;99424.22;5068312;28;8848;-79
2023/06/07 10:13:22;;;;;;;;;37.00;33.00;;;;;26.52;38.68;99423.31;5086815;28;8885;-76
2023/06/07 10:15:53;;;;;;;;;41.75;35.50;;;;;26.55;38.45;99418.50;5085000;28;8856;-77
2023/06/07 10:18:26;;;;;;;;;44.25;37.75;;;;;26.76;38.00;99417.50;5086501;28;8886;-76
2023/06/07 10:21:01;;;;;;;;;40.25;35.25;;;;;26.90;37.50;99427.06;5106167;28;8994;-77
2023/06/07 10:23:40;;;;;;;;;40.50;35.00;;;;;26.80;38.39;99419.81;5091195;28;8877;-76
2023/06/07 10:26:17;;;;;;;;;40.50;35.50;;;;;26.67;37.84;99419.22;5085479;28;8871;-75
2023/06/07 10:28:52;;;;;;;;;39.25;35.25;;;;;26.41;38.95;99422.38;5091050;28;8932;-77
2023/06/07 10:31:28;;;;;;;;;43.25;37.50;;;;;26.56;38.92;99416.66;5046590;28;8859;-76
2023/06/07 10:33:59;;;;;;;;;39.25;35.25;;;;;26.80;38.44;99419.81;5046024;28;8948;-77
2023/06/07 10:36:30;;;;;;;;;40.00;35.50;;;;;26.84;37.62;99425.78;5028895;28;8873;-76
2023/06/07 10:38:59;;;;;;;;;41.75;36.00;;;;;26.99;37.77;99410.88;5047457;28;8944;-78
2023/06/07 10:41:29;;;;;;;;;42.75;35.50;;;;;27.09;37.35;99419.00;5027551;28;8970;-75
2023/06/07 10:44:01;;;;;;;;;43.25;36.00;;;;;27.33;36.65;99405.06;5023942;28;8995;-76
2023/06/07 10:46:30;;;;;;;;;41.25;35.75;;;;;27.45;36.33;99416.56;5047196;28;8867;-75
2023/06/07 10:48:59;;;;;;;;;48.00;41.00;;;;;26.95;37.10;99405.88;5027950;28;8851;-76
2023/06/07 10:52:06;;;;;;;;;42.75;34.75;;;;;26.15;38.03;99410.38;5018259;28;8855;-76
2023/06/07 10:54:37;;;;;;;;;42.75;36.75;;;;;26.60;38.08;99400.03;4968594;28;8854;-76
2023/06/07 10:57:06;;;;;;;;;40.25;36.00;;;;;26.78;37.27;99399.38;4968228;28;8870;-76
2023/06/07 10:59:36;;;;;;;;;44.75;38.00;;;;;27.14;37.02;99407.81;4968338;28;8854;-76
2023/06/07 11:02:21;;;;;;;;;43.25;37.75;;;;;27.56;36.44;99388.56;4962292;28;8870;-76
2023/06/07 11:04:52;;;;;;;;;48.50;39.25;;;;;27.59;36.92;99391.84;5023013;28;8890;-80
2023/06/07 11:07:26;;;;;;;;;44.50;38.50;;;;;27.29;36.09;99392.88;5027155;28;8884;-77
2023/06/07 11:10:33;;;;;;;;;43.50;37.75;;;;;27.84;35.79;99389.50;5022192;28;8905;-76
2023/06/07 11:13:03;;;;;;;;;37.50;33.75;;;;;27.83;35.43;99377.81;5026355;28;8880;-76
2023/06/07 11:15:35;;;;;;;;;42.00;35.75;;;;;27.99;35.68;99376.34;5007333;28;8993;-76
2023/06/07 11:18:08;;;;;;;;;40.25;34.25;;;;;28.04;35.63;99376.75;5021814;28;8868;-78
2023/06/07 11:20:51;;;;;;;;;39.00;34.50;;;;;28.18;35.35;99372.75;5010785;28;8885;-78
2023/06/07 11:23:27;;;;;;;;;39.25;34.75;;;;;28.22;35.11;99372.28;5026219;28;8918;-79
2023/06/07 11:26:00;;;;;;;;;41.75;36.00;;;;;28.39;34.78;99367.06;5009896;28;8870;-77
2023/06/07 11:28:31;;;;;;;;;38.75;34.50;;;;;28.37;34.63;99363.66;5025569;28;8971;-77
2023/06/07 11:31:02;;;;;;;;;46.00;38.50;;;;;28.45;34.36;99361.03;5054323;28;8862;-78
2023/06/07 11:33:34;;;;;;;;;35.75;32.75;;;;;28.51;34.21;99365.00;5081869;28;8855;-80
2023/06/07 11:36:05;;;;;;;;;38.25;34.50;;;;;28.44;33.96;99362.03;5086856;28;9597;-77
2023/06/07 11:38:37;;;;;;;;;42.50;36.50;;;;;28.56;34.37;99370.81;5073050;28;8973;-78
2023/06/07 11:41:06;;;;;;;;;41.75;35.75;;;;;28.66;34.01;99365.34;5048881;28;8878;-76
2023/06/07 11:43:35;;;;;;;;;40.25;35.50;;;;;28.89;33.42;99365.72;5075362;28;8854;-82